LFLPLIMJ

Guest
Details From LFLP - Meythet
To LIMJ - Genova Sestri
Flight Number -
Tags Generated
Created
Modified
Stats Distance 147 nm / 272 km
Max Altitude 0 ft / 0 m
Waypoints 2
Social Downloads 1
Likes 0
Share VATSIM

Download

Looking for another format? Having issues loading an existing format? Contact us
Advertisement - Login to hide

Notes

Generated

Route

LFLP LIMJ

ID Type Via Altitude Latitude Longitude Leg Dist Tot Dist Heading (true) Name
O LFLP APT - 0 ft / 0 m 45.93156˚ 6.10400˚ - 0 nm - Annecy Haute-Sovoie Mont Blanc Meythet
O LIMJ APT - 0 ft / 0 m 44.41542˚ 8.82419˚ 146 nm 146 nm 127° / 129° -

Altitude Profile

Advertisement - Login to hide

LFLP

Details ICAO LFLP (NCY)
Name Annecy Haute-Sovoie Mont Blanc Meythet
Region France
Timezone Europe/Paris (UTC+2.0)
Stats Elevation 1,520 ft / 463 m (AMSL)
Location 45.928820° 6.099601°
Runways 2
Magnetic Variation 1.794° E

METAR

LFLP 271200Z AUTO 06003KT 030V110 CAVOK 25/15 Q1016 TEMPO VRB15G25KT 4500 TSRA BKN050CB

Decode

TAF

TAF LFLP 270800Z 2709/2809 36012KT CAVOK BECMG 2709/2711 SCT055TCU PROB40 TEMPO 2712/2714 SHRA PROB30 TEMPO 2712/2714 VRB15G25KT 4500 TSRA BKN050CB TEMPO 2717/2721 4500 SHRA FEW050CB BKN055TCU PROB40 TEMPO 2717/2720 VRB20G35KT 2900 TSRA BKN050CB PROB30 TEMPO 2717/2720 VRB25G40KT 1400 TSGR OVC030CB BECMG 2721/2723 VRB02KT CAVOK

Decode

Departure Runways

ID Width Length Bearing (true) Bearing (mag) Surface Threshold Offset Overrun Length
04 98 ft / 30 m 5,290 ft / 1,612 m 38.51° 36.72° Asphalt 820 ft / 250 m 0 ft / 0 m
22 98 ft / 30 m 5,290 ft / 1,612 m 218.52° 216.73° Asphalt 755 ft / 230 m 0 ft / 0 m
22C 230 ft / 70 m 2,783 ft / 848 m 218.40° 216.61° Grass 0 ft / 0 m 0 ft / 0 m
4C 230 ft / 70 m 2,783 ft / 848 m 38.40° 36.61° Grass 0 ft / 0 m 0 ft / 0 m

LIMJ

Details ICAO LIMJ (GOA)
Name Genova Sestri
Region Italy
Timezone Unknown (UTC+0.0)
Stats Elevation 13 ft / 4 m (AMSL)
Location 44.411957° 8.841866°
Runways 1
Magnetic Variation 2.439° E

METAR

LIMJ 271150Z 23004KT 190V270 9999 FEW035 25/20 Q1017

Decode

TAF

TAF LIMJ 271100Z 2712/2812 20007KT 9999 SCT030 TEMPO 2715/2724 SHRA

Decode

Destination Runways

ID Width Length Bearing (true) Bearing (mag) Surface Threshold Offset Overrun Length
10 148 ft / 45 m 9,574 ft / 2,918 m 105.39° 102.95° Asphalt 0 ft / 0 m 0 ft / 0 m
28 148 ft / 45 m 9,574 ft / 2,918 m 285.41° 282.97° Asphalt 538 ft / 164 m 0 ft / 0 m

Approach Navaids

Runway Type Ident Frequency Range Bearing (true) Bearing (mag) Slope Elevation
28 Localiser GSE 109.30 MHz 18 nm / 33 km 287.30° 284.86° - 9 ft / 3 m (AMSL)
28 Glidescope GSE 109.30 MHz 10 nm / 19 km 287.30° 284.86° 3.17° 26 ft / 8 m (AMSL)
28 DME GSE 109.30 MHz 18 nm / 33 km - - - 26 ft / 8 m (AMSL)